createdAt,value
2019-05-04T00:02:00.221Z,99.9
2019-05-04T00:07:04.508Z,97.6
2019-05-04T00:12:05.229Z,95.4
2019-05-04T00:17:07.693Z,93.8
2019-05-04T00:22:10.197Z,91.8
2019-05-04T00:27:14.347Z,84.9
2019-05-04T00:32:15.421Z,68.7
2019-05-04T00:37:17.535Z,61.5
2019-05-04T00:42:20.054Z,59.5
2019-05-04T00:47:22.467Z,52.4
2019-05-04T00:52:24.906Z,50.1
2019-05-04T00:57:27.716Z,40.4
2019-05-04T01:02:32.674Z,27.9
2019-05-04T01:07:32.294Z,21.4
2019-05-04T01:12:35.473Z,16.3
2019-05-04T01:17:37.329Z,8.6
2019-05-04T01:22:39.730Z,2.3
2019-05-04T01:27:44.424Z,1
2019-05-04T01:32:44.737Z,1
2019-05-04T01:37:47.062Z,1
2019-05-04T01:42:49.509Z,1
2019-05-04T01:47:52.046Z,1
2019-05-04T01:52:55.715Z,1
2019-05-04T01:57:57.256Z,1
2019-05-04T02:02:59.416Z,1
2019-05-04T02:08:01.883Z,1
2019-05-04T02:13:04.736Z,1
2019-05-04T02:18:06.826Z,1
2019-05-04T02:23:09.856Z,1
2019-05-04T02:28:12.009Z,1
2019-05-04T02:33:15.251Z,1
2019-05-04T02:38:18.516Z,1
2019-05-04T02:43:19.060Z,1
2019-05-04T02:48:21.584Z,1
2019-05-04T02:53:25.776Z,1
2019-05-04T02:58:33.719Z,1
2019-05-04T03:03:28.874Z,1
2019-05-04T03:08:35.172Z,1
2019-05-04T03:13:35.553Z,1
2019-05-04T03:18:36.225Z,1
2019-05-04T03:23:38.725Z,1
2019-05-04T03:28:41.503Z,1
2019-05-04T03:33:48.009Z,1
2019-05-04T03:38:53.361Z,1
2019-05-04T03:43:48.572Z,1
2019-05-04T03:48:51.126Z,1
2019-05-04T03:53:55.432Z,1
2019-05-04T03:58:56.598Z,1
2019-05-04T04:03:58.337Z,1
2019-05-04T04:09:08.333Z,1
2019-05-04T04:14:05.485Z,1
2019-05-04T04:19:06.310Z,8
2019-05-04T04:24:08.215Z,25.4
2019-05-04T04:29:10.998Z,30.7
2019-05-04T04:34:15.550Z,61.7
2019-05-04T04:39:26.030Z,62.8
2019-05-04T04:44:18.011Z,67.5
2019-05-04T04:49:20.589Z,73.1
2019-05-04T04:54:25.668Z,73.5
2019-05-04T04:59:25.709Z,70.1
2019-05-04T05:04:27.849Z,69.8
2019-05-04T05:09:42.310Z,69.3
2019-05-04T05:14:32.747Z,72.3
2019-05-04T05:19:35.225Z,79.4
2019-05-04T05:24:37.729Z,85.4
2019-05-04T05:29:40.499Z,84.9
2019-05-04T05:34:44.404Z,90.4
2019-05-04T05:39:57.507Z,90
2019-05-04T05:44:47.498Z,99.9
2019-05-04T05:49:55.491Z,94.4
2019-05-04T05:54:54.463Z,98.3
2019-05-04T06:00:02.594Z,99.9
2019-05-04T06:04:57.460Z,99.9
2019-05-04T06:10:19.365Z,99.9
2019-05-04T06:15:04.189Z,99.9
2019-05-04T06:20:04.759Z,99.9
2019-05-04T06:25:08.092Z,99.9
2019-05-04T06:30:09.972Z,99.9
2019-05-04T06:35:12.069Z,99.9
2019-05-04T06:40:14.875Z,99.9
2019-05-04T06:45:17.976Z,99.9
2019-05-04T06:50:20.031Z,99.9
2019-05-04T06:55:22.357Z,99.9
2019-05-04T07:00:25.119Z,99.9
2019-05-04T07:05:26.937Z,99.9
2019-05-04T07:10:29.494Z,99.9
2019-05-04T07:15:31.736Z,99.9
2019-05-04T07:20:37.534Z,99.9
2019-05-04T07:25:37.251Z,99.9
2019-05-04T07:30:40.276Z,99.9
2019-05-04T07:40:44.782Z,99.9
2019-05-04T07:45:46.478Z,99.9
2019-05-04T07:50:48.912Z,99.9
2019-05-04T07:55:51.621Z,99.9
2019-05-04T08:00:54.402Z,99.9
2019-05-04T08:05:56.298Z,99.9
2019-05-04T08:11:00.091Z,99.9
2019-05-04T08:16:01.221Z,99.9
2019-05-04T08:26:06.606Z,99.9
2019-05-04T08:31:08.948Z,99.9
2019-05-04T08:36:15.059Z,99.9
2019-05-04T08:41:14.660Z,99.9
2019-05-04T08:46:16.009Z,99.9
2019-05-04T08:51:19.943Z,99.9
2019-05-04T08:56:23.389Z,99.9
2019-05-04T09:01:24.690Z,99.9
2019-05-04T09:06:31.419Z,99.9
2019-05-04T09:11:29.843Z,99.9
2019-05-04T09:16:34.527Z,29
2019-05-04T09:21:34.911Z,1.8
2019-05-04T09:26:35.641Z,1
2019-05-04T09:31:39.315Z,1
2019-05-04T09:36:40.525Z,1
2019-05-04T09:41:44.220Z,1
2019-05-04T09:46:49.290Z,1
2019-05-04T09:51:48.123Z,1
2019-05-04T09:56:58.117Z,1
2019-05-04T10:02:00.178Z,1
2019-05-04T10:06:55.533Z,1
2019-05-04T10:11:57.791Z,1
2019-05-04T10:17:00.206Z,1
2019-05-04T10:22:04.296Z,1
2019-05-04T10:27:05.086Z,1
2019-05-04T10:32:08.066Z,1
2019-05-04T10:37:10.335Z,1
2019-05-04T10:42:12.647Z,1
2019-05-04T10:47:15.006Z,1
2019-05-04T10:52:17.400Z,1
2019-05-04T10:57:19.840Z,1
2019-05-04T11:02:24.803Z,1
2019-05-04T11:07:25.389Z,1
2019-05-04T11:12:27.209Z,1
2019-05-04T11:17:29.706Z,1
2019-05-04T11:22:32.155Z,1
2019-05-04T11:27:34.727Z,1
2019-05-04T11:32:37.406Z,1
2019-05-04T11:37:39.509Z,1
2019-05-04T11:42:42.080Z,1
2019-05-04T11:47:44.835Z,1
2019-05-04T11:52:46.875Z,1
2019-05-04T11:57:49.345Z,1
2019-05-04T12:02:58.650Z,1
2019-05-04T12:07:55.180Z,1
2019-05-04T12:12:56.735Z,1
2019-05-04T12:17:59.560Z,1
2019-05-04T12:23:01.622Z,1
2019-05-04T12:28:04.599Z,1
2019-05-04T12:33:06.936Z,1
2019-05-04T12:38:09.262Z,1
2019-05-04T12:43:11.482Z,1
2019-05-04T12:48:15.208Z,1
2019-05-04T12:53:16.396Z,1
2019-05-04T12:58:18.842Z,1
2019-05-04T13:03:21.614Z,1
2019-05-04T13:08:24.610Z,1
2019-05-04T13:13:26.298Z,1
2019-05-04T13:18:28.785Z,1
2019-05-04T13:23:31.128Z,1
2019-05-04T13:28:33.652Z,1
2019-05-04T13:33:36.639Z,1
2019-05-04T13:38:38.782Z,1
2019-05-04T13:43:41.229Z,1
2019-05-04T13:48:44.597Z,1
2019-05-04T13:53:45.952Z,1
2019-05-04T13:58:48.449Z,1
2019-05-04T14:03:51.165Z,1
2019-05-04T14:08:54.946Z,1
2019-05-04T14:13:55.741Z,1
2019-05-04T14:18:58.363Z,1
2019-05-04T14:24:00.663Z,1
2019-05-04T14:29:04.736Z,1
2019-05-04T14:34:07.659Z,1
2019-05-04T14:39:08.022Z,1
2019-05-04T14:44:10.463Z,1
2019-05-04T14:49:14.426Z,1
2019-05-04T14:54:15.335Z,1
2019-05-04T14:59:18.040Z,1
2019-05-04T15:04:20.682Z,1
2019-05-04T15:09:22.773Z,1
2019-05-04T15:14:27.212Z,1
2019-05-04T15:19:27.749Z,1
2019-05-04T15:24:30.204Z,1
2019-05-04T15:29:34.624Z,1
2019-05-04T15:34:35.031Z,1
2019-05-04T15:39:37.450Z,1
2019-05-04T15:44:39.931Z,1
2019-05-04T15:49:44.258Z,1
2019-05-04T15:54:45.012Z,1
2019-05-04T15:59:47.369Z,1
2019-05-04T16:04:51.767Z,1
2019-05-04T16:09:52.217Z,1
2019-05-04T16:14:54.836Z,1
2019-05-04T16:19:57.118Z,1
2019-05-04T16:24:59.561Z,1
2019-05-04T16:30:02.125Z,1
2019-05-04T16:35:04.813Z,1
2019-05-04T16:40:07.005Z,1
2019-05-04T16:45:09.433Z,1
2019-05-04T16:50:11.872Z,1
2019-05-04T16:55:14.327Z,1
2019-05-04T17:00:16.830Z,1
2019-05-04T17:05:19.618Z,1
2019-05-04T17:10:21.735Z,1
2019-05-04T17:15:24.481Z,1
2019-05-04T17:20:26.601Z,1
2019-05-04T17:25:29.050Z,1
2019-05-04T17:30:31.517Z,1
2019-05-04T17:35:34.295Z,1
2019-05-04T17:40:36.465Z,1
2019-05-04T17:45:38.970Z,1
2019-05-04T17:50:41.683Z,1
2019-05-04T17:55:43.817Z,1
2019-05-04T18:00:46.243Z,1
2019-05-04T18:05:49.055Z,1
2019-05-04T18:10:51.158Z,1
2019-05-04T18:15:53.727Z,1
2019-05-04T18:20:56.492Z,1
2019-05-04T18:25:58.815Z,1
2019-05-04T18:31:01.071Z,1
2019-05-04T18:36:05.133Z,1
2019-05-04T18:41:06.034Z,1
2019-05-04T18:46:08.404Z,1
2019-05-04T18:51:10.940Z,1
2019-05-04T19:01:15.789Z,5.4
2019-05-04T19:06:18.570Z,5.2
2019-05-04T19:11:20.890Z,1
2019-05-04T19:16:24.961Z,4.7
2019-05-04T19:21:25.705Z,13.5
2019-05-04T19:26:30.833Z,32.6
2019-05-04T19:31:31.251Z,33.9
2019-05-04T19:36:33.365Z,34
2019-05-04T19:41:36.152Z,32.7
2019-05-04T19:46:37.990Z,27.5
2019-05-04T19:51:40.438Z,28.5
2019-05-04T19:56:46.028Z,29.8
2019-05-04T20:01:45.373Z,30
2019-05-04T20:06:47.836Z,34.9
2019-05-04T20:11:50.275Z,34.3
2019-05-04T20:16:54.228Z,46.5
2019-05-04T20:21:55.455Z,48.4
2019-05-04T20:26:57.690Z,46.5
2019-05-04T20:32:00.170Z,43.2
2019-05-04T20:37:04.788Z,36.6
2019-05-04T20:42:05.290Z,37.4
2019-05-04T20:47:07.662Z,43.4
2019-05-04T20:52:10.001Z,70.8
2019-05-04T20:57:12.475Z,97.6
2019-05-04T21:02:15.337Z,99.9
2019-05-04T21:07:18.085Z,99.9
2019-05-04T21:12:19.872Z,99.9
2019-05-04T21:17:24.250Z,99.9
2019-05-04T21:22:24.920Z,99.9
2019-05-04T21:27:27.274Z,99.9
2019-05-04T21:32:29.703Z,99.9
2019-05-04T21:42:35.232Z,99.9
2019-05-04T21:47:37.081Z,99.9
2019-05-04T21:52:39.533Z,99.9
2019-05-04T21:57:41.994Z,99.9
2019-05-04T22:02:45.169Z,99.9
2019-05-04T22:07:46.923Z,99.9
2019-05-04T22:12:49.417Z,99.9
2019-05-04T22:17:52.693Z,99.9
2019-05-04T22:27:56.759Z,99.9
2019-05-04T22:32:59.230Z,99.9
2019-05-04T22:38:01.730Z,99.9
2019-05-04T22:43:04.949Z,99.9
2019-05-04T22:48:06.752Z,99.9
2019-05-04T22:53:09.069Z,99.9
2019-05-04T22:58:11.721Z,99.9
2019-05-04T23:03:14.529Z,99.9
2019-05-04T23:08:16.518Z,99.9
2019-05-04T23:13:19.342Z,99.9
2019-05-04T23:18:21.743Z,99.9
2019-05-04T23:23:24.886Z,99.9
2019-05-04T23:28:26.281Z,99.9
2019-05-04T23:33:28.768Z,99.9
2019-05-04T23:38:31.238Z,99.9
2019-05-04T23:43:34.069Z,99.9
2019-05-04T23:48:36.177Z,99.9
2019-05-04T23:53:38.693Z,99.9
2019-05-04T23:58:41.075Z,99.9
